createdAt,value
2023-05-21T06:57:16.499Z,20.33
2023-05-21T06:59:44.476Z,20.38
2023-05-21T07:02:11.620Z,20.07
2023-05-21T07:04:38.851Z,20.18
2023-05-21T07:07:06.079Z,20.23
2023-05-21T07:09:33.591Z,20.15
2023-05-21T07:12:01.323Z,20.09
2023-05-21T07:14:28.905Z,20.13
2023-05-21T07:16:56.699Z,20.19
2023-05-21T07:19:23.976Z,20.33
2023-05-21T07:21:51.212Z,20.20
2023-05-21T07:24:18.424Z,20.32
2023-05-21T07:26:45.840Z,20.48
2023-05-21T07:29:13.282Z,20.69
2023-05-21T07:31:41.048Z,20.71
2023-05-21T07:34:08.166Z,20.75
2023-05-21T07:36:35.393Z,20.63
2023-05-21T07:39:05.084Z,20.73
2023-05-21T07:41:32.972Z,20.89
2023-05-21T07:44:02.900Z,21.02
2023-05-21T07:46:32.246Z,21.06
2023-05-21T07:48:59.431Z,20.93
2023-05-21T07:51:27.203Z,20.88
2023-05-21T07:53:55.525Z,20.79
2023-05-21T07:56:30.776Z,20.49
2023-05-21T07:59:02.505Z,19.81
2023-05-21T08:01:30.855Z,19.66
2023-05-21T08:04:05.919Z,19.78
2023-05-21T08:06:35.295Z,20.08
2023-05-21T08:09:04.823Z,20.01
2023-05-21T08:11:33.170Z,20.12
2023-05-21T08:14:00.731Z,20.20
2023-05-21T08:16:27.873Z,20.15
2023-05-21T08:18:55.088Z,20.27
2023-05-21T08:21:22.826Z,20.19
2023-05-21T08:23:52.639Z,20.33
2023-05-21T08:26:20.489Z,20.24
2023-05-21T08:28:47.888Z,20.46
2023-05-21T08:31:14.971Z,20.55
2023-05-21T08:33:51.257Z,20.46
2023-05-21T08:36:21.372Z,20.64
2023-05-21T08:38:53.865Z,20.53
2023-05-21T08:41:31.782Z,20.91
2023-05-21T08:44:02.190Z,21.05
2023-05-21T08:46:33.969Z,21.23
2023-05-21T08:49:03.195Z,21.35
2023-05-21T08:51:31.452Z,21.72
2023-05-21T08:54:01.845Z,21.76
2023-05-21T08:56:32.113Z,21.94
2023-05-21T08:58:59.631Z,22.15
2023-05-21T09:01:32.068Z,22.36
2023-05-21T09:04:20.739Z,22.22
2023-05-21T09:06:52.025Z,22.08
2023-05-21T09:09:35.145Z,21.84
2023-05-21T09:12:02.859Z,22.01
2023-05-21T09:14:31.814Z,21.92
2023-05-21T09:17:04.246Z,22.06
2023-05-21T09:19:32.404Z,22.39
2023-05-21T09:22:04.428Z,22.48
2023-05-21T09:24:36.044Z,22.56
2023-05-21T09:27:07.187Z,22.24
2023-05-21T09:29:35.610Z,22.29
2023-05-21T09:32:07.658Z,22.04
2023-05-21T09:34:36.867Z,21.70
2023-05-21T09:37:06.557Z,21.95
2023-05-21T09:39:36.082Z,21.83
2023-05-21T09:42:04.638Z,21.91
2023-05-21T09:44:32.692Z,21.83
2023-05-21T09:47:00.395Z,22.00
2023-05-21T09:49:31.352Z,22.12
2023-05-21T09:52:00.284Z,21.81
2023-05-21T09:54:33.054Z,21.99
2023-05-21T09:57:03.035Z,21.88
2023-05-21T09:59:39.151Z,22.20
2023-05-21T10:02:19.115Z,22.13
2023-05-21T10:04:50.149Z,22.33
2023-05-21T10:07:31.317Z,22.21
2023-05-21T10:10:00.951Z,22.31
2023-05-21T10:12:30.854Z,22.09
2023-05-21T10:15:01.650Z,22.30
2023-05-21T10:17:35.561Z,22.26
2023-05-21T10:20:05.240Z,22.16
2023-05-21T10:22:33.282Z,22.08
2023-05-21T10:25:03.652Z,22.15
2023-05-21T10:27:34.184Z,22.02
2023-05-21T10:30:02.346Z,22.02
2023-05-21T10:32:34.164Z,22.01
2023-05-21T10:35:02.774Z,22.34
2023-05-21T10:37:33.144Z,22.37
2023-05-21T10:40:00.455Z,22.53
2023-05-21T10:42:33.983Z,22.47
2023-05-21T10:45:32.600Z,22.39
2023-05-21T10:48:09.572Z,22.47
2023-05-21T10:50:51.427Z,22.60
2023-05-21T10:53:52.124Z,22.71
2023-05-21T10:56:28.817Z,22.57
2023-05-21T10:59:22.496Z,22.44
2023-05-21T11:01:54.360Z,22.36
2023-05-21T11:04:28.031Z,22.45
2023-05-21T11:06:56.460Z,22.42
2023-05-21T11:09:23.649Z,22.34
2023-05-21T11:11:54.404Z,22.27
2023-05-21T11:14:39.686Z,22.30
2023-05-21T11:17:16.538Z,22.21
2023-05-21T11:19:47.397Z,22.36
2023-05-21T11:22:27.776Z,22.23
2023-05-21T11:25:01.876Z,21.95
2023-05-21T11:27:42.814Z,22.35
2023-05-21T11:30:19.815Z,21.99
2023-05-21T11:33:10.812Z,22.31
2023-05-21T11:35:50.068Z,22.38
2023-05-21T11:38:18.307Z,22.43
2023-05-21T11:40:55.152Z,22.33
2023-05-21T11:43:22.869Z,22.21
2023-05-21T11:45:52.975Z,21.85
2023-05-21T11:48:26.816Z,21.76
2023-05-21T11:50:54.781Z,22.01
2023-05-21T11:53:22.117Z,22.09
2023-05-21T11:55:57.271Z,22.29
2023-05-21T11:58:24.287Z,22.11
2023-05-21T12:00:52.102Z,22.16
2023-05-21T12:03:19.944Z,22.02
2023-05-21T12:05:48.670Z,21.99
2023-05-21T12:08:25.397Z,22.10
2023-05-21T12:10:58.808Z,22.05
2023-05-21T12:13:28.237Z,21.93
2023-05-21T12:15:55.654Z,21.70
2023-05-21T12:18:23.692Z,21.46
2023-05-21T12:20:52.331Z,20.85
2023-05-21T12:23:28.218Z,20.42
2023-05-21T12:25:55.417Z,20.02
2023-05-21T12:28:24.933Z,20.03
2023-05-21T12:30:53.673Z,20.10
2023-05-21T12:33:22.466Z,20.09
2023-05-21T12:35:52.448Z,20.14
2023-05-21T12:38:19.640Z,20.19
2023-05-21T12:40:46.733Z,20.07
2023-05-21T12:43:13.798Z,20.16
2023-05-21T12:45:41.326Z,20.08
2023-05-21T12:48:08.943Z,20.06
2023-05-21T12:50:40.366Z,20.15
2023-05-21T12:53:09.560Z,20.26
2023-05-21T12:55:36.563Z,20.31
2023-05-21T12:58:08.034Z,20.30
2023-05-21T13:00:35.627Z,20.40
2023-05-21T13:03:04.561Z,20.38
2023-05-21T13:05:32.130Z,20.05
2023-05-21T13:07:59.115Z,20.17
2023-05-21T13:10:26.102Z,20.05
2023-05-21T13:12:53.090Z,19.82
2023-05-21T13:15:20.494Z,19.96
2023-05-21T13:17:49.241Z,20.21
2023-05-21T13:20:27.910Z,20.44
2023-05-21T13:22:55.028Z,20.58
2023-05-21T13:25:25.054Z,20.93
2023-05-21T13:27:53.087Z,20.98
2023-05-21T13:30:21.484Z,20.94
2023-05-21T13:32:48.961Z,20.88
2023-05-21T13:35:17.590Z,20.94
2023-05-21T13:37:45.601Z,20.91
2023-05-21T13:40:15.342Z,20.90
2023-05-21T13:42:45.160Z,20.93
2023-05-21T13:45:15.275Z,20.95
2023-05-21T13:47:43.091Z,20.75
2023-05-21T13:50:11.553Z,20.77
2023-05-21T13:52:39.249Z,20.80
2023-05-21T13:55:06.776Z,20.88
2023-05-21T13:57:33.894Z,21.01
2023-05-21T14:00:01.393Z,20.98
2023-05-21T14:02:33.007Z,21.04
2023-05-21T14:05:00.065Z,21.14
2023-05-21T14:07:27.082Z,21.26
2023-05-21T14:09:54.381Z,21.37
2023-05-21T14:12:21.845Z,20.93
2023-05-21T14:14:50.040Z,20.98
2023-05-21T14:17:17.082Z,20.97
2023-05-21T14:19:44.109Z,21.06
2023-05-21T14:22:11.333Z,21.08
2023-05-21T14:24:38.396Z,21.11
2023-05-21T14:27:05.539Z,21.12
2023-05-21T14:29:33.325Z,21.19
2023-05-21T14:32:00.429Z,21.08
2023-05-21T14:34:27.457Z,21.05
2023-05-21T14:36:54.488Z,20.89
2023-05-21T14:49:23.447Z,21.30
2023-05-21T14:55:12.305Z,21.26
2023-05-21T14:57:39.335Z,21.34
2023-05-21T15:00:07.015Z,21.41
2023-05-21T15:02:34.421Z,21.38
2023-05-21T15:05:01.602Z,21.40
2023-05-21T15:07:30.625Z,21.48
2023-05-21T15:09:57.666Z,21.55
2023-05-21T15:12:24.670Z,21.47
2023-05-21T15:14:52.888Z,21.64
2023-05-21T15:17:20.006Z,21.06
2023-05-21T15:19:47.047Z,21.43
2023-05-21T15:22:14.128Z,21.36
2023-05-21T15:24:41.363Z,21.48
2023-05-21T15:27:09.109Z,21.60
2023-05-21T15:29:36.545Z,21.73
2023-05-21T15:32:05.315Z,21.80
2023-05-21T15:34:32.834Z,21.70
2023-05-21T15:37:00.101Z,21.72
2023-05-21T15:39:27.356Z,21.68
2023-05-21T15:41:55.033Z,21.69
2023-05-21T15:44:22.272Z,21.53
2023-05-21T15:46:50.057Z,21.44
2023-05-21T15:49:17.790Z,21.30
2023-05-21T15:51:46.542Z,21.50
2023-05-21T15:54:16.558Z,21.39
2023-05-21T15:56:45.664Z,21.55
2023-05-21T15:59:14.074Z,21.51
2023-05-21T16:01:41.188Z,21.47
2023-05-21T16:04:08.359Z,21.41
2023-05-21T16:06:35.482Z,21.41
2023-05-21T16:09:02.515Z,21.33
2023-05-21T16:11:29.767Z,21.31
2023-05-21T16:13:57.008Z,21.18
2023-05-21T16:16:24.865Z,21.20
2023-05-21T16:18:52.067Z,21.20
2023-05-21T16:21:19.117Z,21.18
2023-05-21T16:23:46.144Z,20.91
2023-05-21T16:26:13.224Z,20.71
2023-05-21T16:28:40.407Z,20.63
2023-05-21T16:31:08.649Z,20.59
2023-05-21T16:33:35.763Z,20.54
2023-05-21T16:36:02.780Z,20.51
2023-05-21T16:38:29.796Z,20.62
2023-05-21T16:40:57.073Z,20.52
2023-05-21T16:43:24.112Z,20.45
2023-05-21T16:45:52.985Z,20.46
2023-05-21T16:48:20.092Z,20.31
2023-05-21T16:50:47.217Z,20.23
2023-05-21T16:53:14.438Z,20.27
2023-05-21T16:55:43.340Z,20.32
2023-05-21T16:58:10.998Z,20.31
2023-05-21T17:00:38.059Z,20.17
2023-05-21T17:03:05.248Z,20.16
2023-05-21T17:05:32.355Z,20.12
2023-05-21T17:07:59.583Z,20.10
2023-05-21T17:10:26.708Z,20.02
2023-05-21T17:12:58.357Z,19.95
2023-05-21T17:15:27.428Z,19.98
2023-05-21T17:17:54.450Z,20.01
2023-05-21T17:20:21.473Z,20.05
2023-05-21T17:22:48.475Z,19.98
2023-05-21T17:25:15.605Z,19.91
2023-05-21T17:27:42.658Z,20.00
2023-05-21T17:30:10.331Z,19.93
2023-05-21T17:32:37.402Z,19.92
2023-05-21T17:35:04.659Z,19.92
2023-05-21T17:37:32.284Z,19.90
2023-05-21T17:39:59.354Z,19.80
2023-05-21T17:42:26.431Z,19.88
2023-05-21T17:44:53.855Z,19.90
2023-05-21T17:47:20.919Z,19.91
2023-05-21T17:49:47.945Z,19.87
2023-05-21T17:52:14.932Z,19.79
2023-05-21T17:54:43.729Z,19.76
2023-05-21T17:57:10.820Z,19.80
2023-05-21T17:59:40.380Z,19.87
2023-05-21T18:02:07.786Z,19.78
2023-05-21T18:04:35.058Z,19.61
2023-05-21T18:07:02.128Z,19.80
2023-05-21T18:09:29.143Z,19.92
2023-05-21T18:11:56.222Z,19.81
2023-05-21T18:14:23.201Z,19.89
2023-05-21T18:16:50.307Z,19.81
2023-05-21T18:19:17.438Z,19.79
2023-05-21T18:21:44.711Z,19.80
2023-05-21T18:24:11.730Z,19.88
2023-05-21T18:26:38.729Z,20.03
2023-05-21T18:29:05.708Z,20.05
2023-05-21T18:31:32.751Z,20.07
2023-05-21T18:33:59.765Z,20.09
2023-05-21T18:36:26.795Z,20.07
2023-05-21T18:38:54.091Z,20.11
2023-05-21T18:41:22.429Z,20.24
2023-05-21T18:43:49.584Z,20.08
2023-05-21T18:46:16.526Z,20.11
2023-05-21T18:48:43.505Z,19.92
2023-05-21T18:51:10.657Z,19.79
2023-05-21T18:53:38.642Z,19.76
2023-05-21T18:56:06.929Z,19.72
2023-05-21T18:58:33.960Z,19.70
2023-05-21T19:01:01.109Z,19.67
2023-05-21T19:03:28.105Z,19.72
2023-05-21T19:05:55.149Z,19.74
2023-05-21T19:08:22.137Z,19.78
2023-05-21T19:10:49.586Z,19.81
2023-05-21T19:13:16.652Z,19.82
2023-05-21T19:15:46.980Z,19.86
2023-05-21T19:18:14.702Z,19.88
2023-05-21T19:20:41.677Z,19.91
2023-05-21T19:23:08.796Z,19.88
2023-05-21T19:25:35.816Z,20.02
2023-05-21T19:28:02.795Z,19.85
2023-05-21T19:30:29.887Z,19.99
2023-05-21T19:32:57.005Z,19.96
2023-05-21T19:35:24.022Z,20.00
2023-05-21T19:37:51.222Z,19.98
2023-05-21T19:40:18.205Z,19.99
2023-05-21T19:42:45.152Z,19.96
2023-05-21T19:45:13.547Z,19.81
2023-05-21T19:47:41.176Z,19.82
2023-05-21T19:50:09.659Z,19.74
2023-05-21T19:52:37.712Z,19.70
2023-05-21T19:55:06.339Z,19.62
2023-05-21T19:57:34.749Z,19.56
2023-05-21T20:00:02.022Z,19.51
2023-05-21T20:02:41.161Z,19.48
2023-05-21T20:05:09.107Z,19.43
2023-05-21T20:07:36.067Z,19.58
2023-05-21T20:10:03.140Z,19.48
2023-05-21T20:12:32.696Z,19.57
2023-05-21T20:15:00.959Z,19.68
2023-05-21T20:17:30.748Z,19.69
2023-05-21T20:19:59.101Z,19.81
2023-05-21T20:22:26.125Z,19.75
2023-05-21T20:24:53.057Z,19.80
2023-05-21T20:27:20.351Z,19.81
2023-05-21T20:29:47.415Z,19.78
2023-05-21T20:32:14.433Z,19.75
2023-05-21T20:34:54.426Z,19.78
2023-05-21T20:37:32.301Z,19.62
2023-05-21T20:40:00.038Z,19.58
2023-05-21T20:42:34.805Z,19.51
2023-05-21T20:45:03.188Z,19.48
2023-05-21T20:47:34.277Z,19.42
2023-05-21T20:50:03.111Z,19.45
2023-05-21T20:52:32.298Z,19.40
2023-05-21T20:54:59.788Z,19.45
2023-05-21T20:57:28.307Z,19.38
2023-05-21T20:59:56.233Z,19.36
2023-05-21T21:02:23.477Z,19.38
2023-05-21T21:04:50.832Z,19.41
2023-05-21T21:07:18.258Z,19.33
2023-05-21T21:09:46.749Z,19.41
2023-05-21T21:12:25.286Z,19.43
2023-05-21T21:14:53.526Z,19.49
2023-05-21T21:17:20.767Z,19.44
2023-05-21T21:19:47.771Z,19.37
2023-05-21T21:22:16.208Z,19.39
2023-05-21T21:24:43.356Z,19.37
2023-05-21T21:27:10.447Z,19.34
2023-05-21T21:29:37.679Z,19.29
2023-05-21T21:32:05.054Z,19.19
2023-05-21T21:34:32.014Z,19.00
2023-05-21T21:36:58.988Z,19.07
2023-05-21T21:39:26.866Z,19.08
2023-05-21T21:41:53.990Z,19.06
2023-05-21T21:44:21.332Z,18.96
2023-05-21T21:46:48.451Z,19.00
2023-05-21T21:49:17.457Z,19.06
2023-05-21T21:51:45.293Z,19.14
2023-05-21T21:54:12.526Z,19.22
2023-05-21T21:56:39.545Z,19.20
2023-05-21T21:59:06.480Z,19.25
2023-05-21T22:01:33.664Z,19.21
2023-05-21T22:04:00.769Z,19.24
2023-05-21T22:06:28.677Z,19.15
2023-05-21T22:08:55.811Z,19.15
2023-05-21T22:11:22.961Z,19.16
2023-05-21T22:13:50.001Z,19.07
2023-05-21T22:16:17.032Z,19.13
2023-05-21T22:18:44.114Z,19.05
2023-05-21T22:21:14.301Z,18.94
2023-05-21T22:23:41.556Z,18.94
2023-05-21T22:26:27.205Z,18.90
2023-05-21T22:28:54.148Z,18.98
2023-05-21T22:31:21.286Z,18.91
2023-05-21T22:33:48.228Z,18.99
2023-05-21T22:36:15.187Z,19.24
2023-05-21T22:38:43.543Z,19.04
2023-05-21T22:41:11.137Z,18.91
2023-05-21T22:43:38.215Z,18.84
2023-05-21T22:46:05.455Z,18.74
2023-05-21T22:48:34.390Z,18.80
2023-05-21T22:51:02.010Z,18.69
2023-05-21T22:53:29.101Z,18.76
2023-05-21T22:55:56.097Z,18.75
2023-05-21T22:58:23.119Z,18.48
2023-05-21T23:00:50.073Z,18.76
2023-05-21T23:03:17.530Z,18.78
2023-05-21T23:05:45.207Z,18.86
2023-05-21T23:08:12.646Z,18.73
2023-05-21T23:10:40.063Z,18.75
2023-05-21T23:13:07.270Z,18.59
2023-05-21T23:15:34.349Z,18.79
2023-05-21T23:18:01.421Z,18.76
2023-05-21T23:20:28.684Z,18.80
2023-05-21T23:22:55.644Z,18.62
2023-05-21T23:25:22.633Z,18.57
2023-05-21T23:27:49.644Z,18.62
2023-05-21T23:30:16.725Z,18.44
2023-05-21T23:32:43.717Z,18.51
2023-05-21T23:35:10.768Z,18.47
2023-05-21T23:37:37.685Z,18.33
2023-05-21T23:40:05.379Z,18.35
2023-05-21T23:42:32.449Z,18.38
2023-05-21T23:44:59.376Z,18.31
2023-05-21T23:47:26.391Z,18.23
2023-05-21T23:49:53.373Z,18.16
2023-05-21T23:52:20.501Z,18.21
2023-05-21T23:54:47.582Z,18.24
2023-05-21T23:57:14.801Z,18.16
2023-05-21T23:59:41.783Z,18.31
